FFT2067 KATL-KOMA
Flight info
| Callsign | FFT2067 |
|---|---|
| Flight time | 2h 7m |
| Altitude | 34000 |
| Route | PENCL2 JAACE HITMN FAM HLV LMN MARWI4 |
| Aircraft | A321/M-SDE3FGHIRWY/LB1 |
Departure
| Time | 2026-05-09 02:19 |
|---|---|
| Airport | Hartsfield Jackson Atlanta International Airport (KATL) |
Arrival
| Time | 2026-05-09 04:26 |
|---|---|
| Airport | Eppley Airfield (KOMA) |
| Time | Latitude | Longitude | Altitude | Speed | Heading |
|---|---|---|---|---|---|
| 2026-05-09 02:06 | 33.63866 | -84.43193 | 1006 ft | 0 kts | 268° |
| 2026-05-09 02:08 | 33.63866 | -84.43192 | 1006 ft | 1 kts | 268° |
| 2026-05-09 02:08 | 33.63867 | -84.43173 | 1006 ft | 3 kts | 268° |
| 2026-05-09 02:09 | 33.63867 | -84.43149 | 1006 ft | 3 kts | 268° |
| 2026-05-09 02:09 | 33.63868 | -84.43131 | 1006 ft | 3 kts | 268° |
| 2026-05-09 02:11 | 33.63881 | -84.43141 | 1006 ft | 5 kts | 343° |
| 2026-05-09 02:11 | 33.63940 | -84.43134 | 1006 ft | 11 kts | 10° |
| 2026-05-09 02:12 | 33.64031 | -84.43130 | 1006 ft | 14 kts | 359° |
| 2026-05-09 02:12 | 33.64134 | -84.43130 | 1006 ft | 15 kts | 0° |
| 2026-05-09 02:12 | 33.64243 | -84.43130 | 1006 ft | 15 kts | 0° |
| 2026-05-09 02:12 | 33.64349 | -84.43129 | 1006 ft | 16 kts | 360° |
| 2026-05-09 02:13 | 33.64449 | -84.43096 | 1007 ft | 16 kts | 53° |
| 2026-05-09 02:13 | 33.64460 | -84.42962 | 1006 ft | 17 kts | 90° |
| 2026-05-09 02:13 | 33.64458 | -84.42817 | 1006 ft | 18 kts | 89° |
| 2026-05-09 02:13 | 33.64469 | -84.42665 | 1006 ft | 19 kts | 90° |
| 2026-05-09 02:14 | 33.64466 | -84.42505 | 1006 ft | 20 kts | 85° |
| 2026-05-09 02:14 | 33.64466 | -84.42338 | 1006 ft | 21 kts | 92° |
| 2026-05-09 02:14 | 33.64504 | -84.42191 | 1006 ft | 19 kts | 59° |
| 2026-05-09 02:14 | 33.64543 | -84.42036 | 1006 ft | 20 kts | 89° |
| 2026-05-09 02:15 | 33.64542 | -84.41862 | 1006 ft | 20 kts | 91° |
| 2026-05-09 02:15 | 33.64543 | -84.41705 | 1007 ft | 17 kts | 90° |
| 2026-05-09 02:15 | 33.64543 | -84.41570 | 1007 ft | 16 kts | 90° |
| 2026-05-09 02:15 | 33.64543 | -84.41445 | 1007 ft | 14 kts | 90° |
| 2026-05-09 02:16 | 33.64542 | -84.41315 | 1007 ft | 17 kts | 90° |
| 2026-05-09 02:16 | 33.64541 | -84.41165 | 1007 ft | 19 kts | 90° |
| 2026-05-09 02:16 | 33.64542 | -84.40995 | 1006 ft | 22 kts | 88° |
| 2026-05-09 02:16 | 33.64550 | -84.40827 | 1006 ft | 18 kts | 74° |
| 2026-05-09 02:17 | 33.64572 | -84.40684 | 1005 ft | 16 kts | 89° |
| 2026-05-09 02:17 | 33.64613 | -84.40572 | 1004 ft | 15 kts | 14° |
| 2026-05-09 02:17 | 33.64680 | -84.40606 | 1004 ft | 9 kts | 287° |
| 2026-05-09 02:17 | 33.64680 | -84.40629 | 1004 ft | 0 kts | 270° |
| 2026-05-09 02:18 | 33.64680 | -84.40630 | 1004 ft | 1 kts | 270° |
| 2026-05-09 02:18 | 33.64680 | -84.40813 | 1005 ft | 56 kts | 269° |
| 2026-05-09 02:18 | 33.64679 | -84.41566 | 1008 ft | 118 kts | 270° |
| 2026-05-09 02:19 | 33.64678 | -84.42741 | 1007 ft | 164 kts | 270° |
| 2026-05-09 02:19 | 33.64688 | -84.44164 | 1312 ft | 176 kts | 270° |
| 2026-05-09 02:19 | 33.64693 | -84.45503 | 2222 ft | 159 kts | 270° |
| 2026-05-09 02:19 | 33.65031 | -84.46783 | 2821 ft | 165 kts | 292° |
| 2026-05-09 02:20 | 33.65540 | -84.48063 | 3142 ft | 175 kts | 290° |
| 2026-05-09 02:20 | 33.66053 | -84.49439 | 3465 ft | 183 kts | 290° |
| 2026-05-09 02:20 | 33.66578 | -84.50878 | 3676 ft | 196 kts | 290° |
| 2026-05-09 02:20 | 33.67141 | -84.52434 | 3906 ft | 209 kts | 291° |
| 2026-05-09 02:21 | 33.67744 | -84.54061 | 4178 ft | 219 kts | 291° |
| 2026-05-09 02:21 | 33.68388 | -84.55754 | 4431 ft | 235 kts | 292° |
| 2026-05-09 02:21 | 33.69399 | -84.57448 | 4647 ft | 264 kts | 320° |
| 2026-05-09 02:21 | 33.71105 | -84.58316 | 5119 ft | 281 kts | 351° |
| 2026-05-09 02:22 | 33.73080 | -84.58393 | 5822 ft | 285 kts | 359° |
| 2026-05-09 02:22 | 33.75064 | -84.58303 | 6568 ft | 286 kts | 359° |
| 2026-05-09 02:22 | 33.77055 | -84.58192 | 7238 ft | 288 kts | 359° |
| 2026-05-09 02:22 | 33.79064 | -84.58094 | 7847 ft | 292 kts | 358° |
| 2026-05-09 02:23 | 33.81105 | -84.58012 | 8486 ft | 294 kts | 356° |
| 2026-05-09 02:23 | 33.83155 | -84.57998 | 9161 ft | 295 kts | 354° |
| 2026-05-09 02:23 | 33.85193 | -84.58225 | 9790 ft | 292 kts | 341° |
| 2026-05-09 02:23 | 33.87155 | -84.58901 | 10260 ft | 300 kts | 338° |
| 2026-05-09 02:24 | 33.89234 | -84.59623 | 10376 ft | 321 kts | 339° |
| 2026-05-09 02:24 | 33.91451 | -84.60364 | 10513 ft | 341 kts | 340° |
| 2026-05-09 02:24 | 33.93780 | -84.61118 | 10968 ft | 349 kts | 340° |
| 2026-05-09 02:24 | 33.96138 | -84.61866 | 11541 ft | 352 kts | 340° |
| 2026-05-09 02:25 | 33.98514 | -84.62616 | 12155 ft | 354 kts | 340° |
| 2026-05-09 02:25 | 34.00896 | -84.63371 | 12775 ft | 356 kts | 340° |
| 2026-05-09 02:25 | 34.03302 | -84.64141 | 13387 ft | 358 kts | 340° |
| 2026-05-09 02:25 | 34.05708 | -84.64913 | 13978 ft | 360 kts | 340° |
| 2026-05-09 02:26 | 34.08139 | -84.65695 | 14532 ft | 362 kts | 339° |
| 2026-05-09 02:26 | 34.10576 | -84.66483 | 15088 ft | 364 kts | 339° |
| 2026-05-09 02:26 | 34.12993 | -84.67265 | 15621 ft | 366 kts | 339° |
| 2026-05-09 02:26 | 34.15454 | -84.68066 | 16158 ft | 367 kts | 338° |
| 2026-05-09 02:27 | 34.17926 | -84.68874 | 16705 ft | 369 kts | 338° |
| 2026-05-09 02:27 | 34.20406 | -84.69686 | 17249 ft | 370 kts | 338° |
| 2026-05-09 02:27 | 34.22899 | -84.70500 | 17752 ft | 372 kts | 338° |
| 2026-05-09 02:27 | 34.25412 | -84.71317 | 18279 ft | 374 kts | 337° |
| 2026-05-09 02:28 | 34.27901 | -84.72221 | 18712 ft | 373 kts | 334° |
| 2026-05-09 02:28 | 34.30366 | -84.73230 | 19132 ft | 374 kts | 333° |
| 2026-05-09 02:28 | 34.32815 | -84.74296 | 19538 ft | 376 kts | 332° |
| 2026-05-09 02:28 | 34.35281 | -84.75391 | 19944 ft | 378 kts | 332° |
| 2026-05-09 02:29 | 34.37763 | -84.76492 | 20364 ft | 380 kts | 331° |
| 2026-05-09 02:29 | 34.40251 | -84.77577 | 20766 ft | 383 kts | 332° |
| 2026-05-09 02:29 | 34.42771 | -84.78657 | 21171 ft | 385 kts | 332° |
| 2026-05-09 02:29 | 34.45307 | -84.79733 | 21554 ft | 387 kts | 331° |
| 2026-05-09 02:30 | 34.47859 | -84.80812 | 21985 ft | 390 kts | 331° |
| 2026-05-09 02:30 | 34.50429 | -84.81897 | 22375 ft | 392 kts | 331° |
| 2026-05-09 02:30 | 34.53006 | -84.82983 | 22760 ft | 394 kts | 331° |
| 2026-05-09 02:30 | 34.55567 | -84.84065 | 23140 ft | 395 kts | 330° |
| 2026-05-09 02:31 | 34.58177 | -84.85172 | 23537 ft | 398 kts | 330° |
| 2026-05-09 02:31 | 34.60792 | -84.86286 | 23842 ft | 400 kts | 330° |
| 2026-05-09 02:31 | 34.63418 | -84.87408 | 24192 ft | 402 kts | 330° |
| 2026-05-09 02:31 | 34.66062 | -84.88540 | 24510 ft | 403 kts | 330° |
| 2026-05-09 02:32 | 34.68711 | -84.89673 | 24808 ft | 405 kts | 330° |
| 2026-05-09 02:32 | 34.71372 | -84.90809 | 25099 ft | 407 kts | 329° |
| 2026-05-09 02:32 | 34.74059 | -84.91954 | 25387 ft | 409 kts | 329° |
| 2026-05-09 02:32 | 34.76750 | -84.93098 | 25666 ft | 412 kts | 329° |
| 2026-05-09 02:33 | 34.79465 | -84.94255 | 25946 ft | 414 kts | 329° |
| 2026-05-09 02:33 | 34.82188 | -84.95417 | 26221 ft | 416 kts | 329° |
| 2026-05-09 02:33 | 34.84926 | -84.96587 | 26500 ft | 418 kts | 328° |
| 2026-05-09 02:33 | 34.87673 | -84.97761 | 26758 ft | 420 kts | 328° |
| 2026-05-09 02:34 | 34.90441 | -84.98947 | 27066 ft | 421 kts | 328° |
| 2026-05-09 02:34 | 34.93211 | -85.00137 | 27318 ft | 423 kts | 328° |
| 2026-05-09 02:34 | 34.96000 | -85.01336 | 27591 ft | 425 kts | 328° |
| 2026-05-09 02:34 | 34.98798 | -85.02539 | 27841 ft | 427 kts | 327° |
| 2026-05-09 02:35 | 35.01608 | -85.03743 | 28104 ft | 429 kts | 327° |
| 2026-05-09 02:35 | 35.04434 | -85.04950 | 28353 ft | 431 kts | 327° |
| 2026-05-09 02:35 | 35.07269 | -85.06165 | 28578 ft | 431 kts | 326° |
| 2026-05-09 02:35 | 35.09932 | -85.07705 | 28791 ft | 415 kts | 316° |
| 2026-05-09 02:36 | 35.12235 | -85.09722 | 29014 ft | 401 kts | 307° |
| 2026-05-09 02:36 | 35.14162 | -85.12098 | 29247 ft | 389 kts | 298° |
| 2026-05-09 02:36 | 35.15832 | -85.14676 | 29572 ft | 387 kts | 297° |
| 2026-05-09 02:36 | 35.17484 | -85.17231 | 29817 ft | 388 kts | 297° |
| 2026-05-09 02:37 | 35.19161 | -85.19813 | 30116 ft | 388 kts | 297° |
| 2026-05-09 02:37 | 35.20833 | -85.22380 | 30438 ft | 386 kts | 297° |
| 2026-05-09 02:37 | 35.22504 | -85.24945 | 30755 ft | 384 kts | 296° |
| 2026-05-09 02:37 | 35.24166 | -85.27499 | 31062 ft | 383 kts | 296° |
| 2026-05-09 02:38 | 35.25819 | -85.30047 | 31360 ft | 382 kts | 296° |
| 2026-05-09 02:38 | 35.27468 | -85.32597 | 31663 ft | 381 kts | 296° |
| 2026-05-09 02:38 | 35.29108 | -85.35133 | 31943 ft | 380 kts | 296° |
| 2026-05-09 02:38 | 35.30750 | -85.37673 | 32217 ft | 380 kts | 296° |
| 2026-05-09 02:39 | 35.32387 | -85.40212 | 32530 ft | 379 kts | 296° |
| 2026-05-09 02:39 | 35.34014 | -85.42738 | 32842 ft | 378 kts | 295° |
| 2026-05-09 02:39 | 35.35649 | -85.45282 | 33098 ft | 378 kts | 295° |
| 2026-05-09 02:39 | 35.37275 | -85.47811 | 33417 ft | 377 kts | 295° |
| 2026-05-09 02:40 | 35.38897 | -85.50331 | 33689 ft | 377 kts | 295° |
| 2026-05-09 02:40 | 35.40519 | -85.52847 | 33944 ft | 376 kts | 295° |
| 2026-05-09 02:40 | 35.42135 | -85.55354 | 34048 ft | 372 kts | 296° |
| 2026-05-09 02:41 | 35.45321 | -85.60303 | 34002 ft | 368 kts | 295° |
| 2026-05-09 02:41 | 35.48482 | -85.65241 | 34000 ft | 367 kts | 295° |
| 2026-05-09 02:42 | 35.51627 | -85.70177 | 34000 ft | 367 kts | 295° |
| 2026-05-09 02:42 | 35.54782 | -85.75127 | 33993 ft | 368 kts | 295° |
| 2026-05-09 02:43 | 35.57942 | -85.80063 | 33987 ft | 368 kts | 295° |
| 2026-05-09 02:43 | 35.61109 | -85.85012 | 33988 ft | 368 kts | 295° |
| 2026-05-09 02:44 | 35.64263 | -85.89965 | 33985 ft | 368 kts | 295° |
| 2026-05-09 02:44 | 35.67406 | -85.94914 | 33985 ft | 367 kts | 295° |
| 2026-05-09 02:45 | 35.70561 | -85.99873 | 34006 ft | 368 kts | 295° |
| 2026-05-09 02:45 | 35.73713 | -86.04834 | 33995 ft | 368 kts | 295° |
| 2026-05-09 02:46 | 35.76858 | -86.09809 | 33991 ft | 369 kts | 295° |
| 2026-05-09 02:46 | 35.79997 | -86.14775 | 33989 ft | 369 kts | 295° |
| 2026-05-09 02:47 | 35.83147 | -86.19767 | 33974 ft | 369 kts | 295° |
| 2026-05-09 02:47 | 35.86307 | -86.24775 | 33971 ft | 370 kts | 296° |
| 2026-05-09 02:48 | 35.89463 | -86.29786 | 33955 ft | 371 kts | 296° |
| 2026-05-09 02:48 | 35.92619 | -86.34801 | 33955 ft | 371 kts | 295° |
| 2026-05-09 02:49 | 35.95787 | -86.39846 | 33958 ft | 371 kts | 295° |
| 2026-05-09 02:49 | 35.98942 | -86.44887 | 33978 ft | 372 kts | 295° |
| 2026-05-09 02:50 | 36.02107 | -86.49942 | 33980 ft | 372 kts | 295° |
| 2026-05-09 02:50 | 36.05276 | -86.55000 | 33983 ft | 372 kts | 295° |
| 2026-05-09 02:51 | 36.07902 | -86.59207 | 33981 ft | 372 kts | 296° |
| 2026-05-09 02:51 | 36.11587 | -86.65126 | 33960 ft | 372 kts | 295° |
| 2026-05-09 02:52 | 36.14101 | -86.69407 | 33963 ft | 363 kts | 289° |
| 2026-05-09 02:52 | 36.16980 | -86.75710 | 33963 ft | 362 kts | 289° |
| 2026-05-09 02:53 | 36.19051 | -86.80262 | 33919 ft | 362 kts | 289° |
| 2026-05-09 02:53 | 36.21522 | -86.85692 | 33976 ft | 362 kts | 289° |
| 2026-05-09 02:54 | 36.23987 | -86.91130 | 33970 ft | 362 kts | 289° |
| 2026-05-09 02:54 | 36.26434 | -86.96527 | 33963 ft | 362 kts | 289° |
| 2026-05-09 02:55 | 36.28901 | -87.01969 | 33954 ft | 362 kts | 289° |
| 2026-05-09 02:55 | 36.31358 | -87.07413 | 33952 ft | 362 kts | 288° |
| 2026-05-09 02:56 | 36.33819 | -87.12879 | 33956 ft | 362 kts | 288° |
| 2026-05-09 02:56 | 36.36276 | -87.18336 | 33954 ft | 362 kts | 288° |
| 2026-05-09 02:57 | 36.38735 | -87.23796 | 33951 ft | 362 kts | 288° |
| 2026-05-09 02:57 | 36.41188 | -87.29258 | 33954 ft | 362 kts | 288° |
| 2026-05-09 02:58 | 36.43632 | -87.34713 | 33951 ft | 362 kts | 289° |
| 2026-05-09 02:58 | 36.46077 | -87.40179 | 33942 ft | 362 kts | 288° |
| 2026-05-09 02:59 | 36.48523 | -87.45669 | 33963 ft | 364 kts | 289° |
| 2026-05-09 02:59 | 36.50979 | -87.51176 | 33950 ft | 365 kts | 289° |
| 2026-05-09 03:00 | 36.53440 | -87.56703 | 33937 ft | 365 kts | 289° |
| 2026-05-09 03:00 | 36.55900 | -87.62234 | 33938 ft | 366 kts | 289° |
| 2026-05-09 03:01 | 36.58363 | -87.67770 | 33937 ft | 366 kts | 289° |
| 2026-05-09 03:01 | 36.60818 | -87.73320 | 33913 ft | 366 kts | 289° |
| 2026-05-09 03:02 | 36.63271 | -87.78875 | 33917 ft | 366 kts | 289° |
| 2026-05-09 03:02 | 36.65725 | -87.84434 | 33916 ft | 366 kts | 289° |
| 2026-05-09 03:03 | 36.68181 | -87.89995 | 33921 ft | 367 kts | 289° |
| 2026-05-09 03:03 | 36.70630 | -87.95567 | 33920 ft | 366 kts | 289° |
| 2026-05-09 03:04 | 36.73056 | -88.01099 | 33922 ft | 366 kts | 289° |
| 2026-05-09 03:04 | 36.75508 | -88.06694 | 33938 ft | 368 kts | 290° |
| 2026-05-09 03:05 | 36.77962 | -88.12304 | 33932 ft | 369 kts | 290° |
| 2026-05-09 03:05 | 36.80429 | -88.17933 | 33924 ft | 370 kts | 290° |
| 2026-05-09 03:06 | 36.82890 | -88.23560 | 33920 ft | 370 kts | 290° |
| 2026-05-09 03:06 | 36.85348 | -88.29203 | 33919 ft | 370 kts | 290° |
| 2026-05-09 03:07 | 36.87806 | -88.34862 | 33917 ft | 370 kts | 290° |
| 2026-05-09 03:07 | 36.90260 | -88.40529 | 33918 ft | 371 kts | 290° |
| 2026-05-09 03:08 | 36.92715 | -88.46194 | 33919 ft | 371 kts | 290° |
| 2026-05-09 03:08 | 36.95169 | -88.51865 | 33907 ft | 370 kts | 290° |
| 2026-05-09 03:09 | 36.97612 | -88.57532 | 33905 ft | 370 kts | 290° |
| 2026-05-09 03:09 | 37.00054 | -88.63196 | 33910 ft | 369 kts | 290° |
| 2026-05-09 03:10 | 37.02493 | -88.68846 | 33898 ft | 369 kts | 290° |
| 2026-05-09 03:10 | 37.04912 | -88.74478 | 33894 ft | 370 kts | 290° |
| 2026-05-09 03:11 | 37.07340 | -88.80157 | 33895 ft | 370 kts | 290° |
| 2026-05-09 03:11 | 37.09786 | -88.85881 | 33892 ft | 370 kts | 290° |
| 2026-05-09 03:12 | 37.12202 | -88.91538 | 33890 ft | 370 kts | 290° |
| 2026-05-09 03:12 | 37.14629 | -88.97231 | 33885 ft | 370 kts | 290° |
| 2026-05-09 03:13 | 37.18272 | -89.05784 | 33885 ft | 371 kts | 290° |
| 2026-05-09 03:13 | 37.20691 | -89.11486 | 33895 ft | 371 kts | 290° |
| 2026-05-09 03:14 | 37.23109 | -89.17203 | 33896 ft | 371 kts | 290° |
| 2026-05-09 03:14 | 37.25536 | -89.22947 | 33915 ft | 374 kts | 290° |
| 2026-05-09 03:15 | 37.27976 | -89.28713 | 33886 ft | 375 kts | 289° |
| 2026-05-09 03:15 | 37.30419 | -89.34503 | 33881 ft | 375 kts | 289° |
| 2026-05-09 03:16 | 37.32859 | -89.40292 | 33883 ft | 376 kts | 290° |
| 2026-05-09 03:16 | 37.35304 | -89.46100 | 33879 ft | 376 kts | 289° |
| 2026-05-09 03:17 | 37.37737 | -89.51920 | 33887 ft | 376 kts | 289° |
| 2026-05-09 03:17 | 37.40171 | -89.57746 | 33888 ft | 376 kts | 289° |
| 2026-05-09 03:18 | 37.42605 | -89.63570 | 33887 ft | 376 kts | 289° |
| 2026-05-09 03:18 | 37.45018 | -89.69352 | 33890 ft | 376 kts | 289° |
| 2026-05-09 03:19 | 37.47445 | -89.75183 | 33892 ft | 376 kts | 289° |
| 2026-05-09 03:19 | 37.49864 | -89.81015 | 33900 ft | 375 kts | 289° |
| 2026-05-09 03:20 | 37.52278 | -89.86845 | 33894 ft | 376 kts | 289° |
| 2026-05-09 03:20 | 37.54704 | -89.92683 | 33893 ft | 376 kts | 289° |
| 2026-05-09 03:21 | 37.57115 | -89.98521 | 33888 ft | 376 kts | 289° |
| 2026-05-09 03:21 | 37.59525 | -90.04372 | 33909 ft | 375 kts | 289° |
| 2026-05-09 03:22 | 37.61920 | -90.10201 | 33907 ft | 375 kts | 289° |
| 2026-05-09 03:22 | 37.64305 | -90.15993 | 33892 ft | 374 kts | 289° |
| 2026-05-09 03:23 | 37.66720 | -90.21818 | 33889 ft | 377 kts | 292° |
| 2026-05-09 03:23 | 37.70145 | -90.27004 | 33883 ft | 392 kts | 304° |
| 2026-05-09 03:24 | 37.73985 | -90.31888 | 33896 ft | 392 kts | 305° |
| 2026-05-09 03:24 | 37.77817 | -90.36792 | 33884 ft | 392 kts | 305° |
| 2026-05-09 03:25 | 37.81644 | -90.41710 | 33860 ft | 393 kts | 305° |
| 2026-05-09 03:25 | 37.85495 | -90.46666 | 33855 ft | 395 kts | 305° |
| 2026-05-09 03:26 | 37.89359 | -90.51637 | 33863 ft | 397 kts | 305° |
| 2026-05-09 03:26 | 37.93234 | -90.56623 | 33871 ft | 398 kts | 305° |
| 2026-05-09 03:27 | 37.97112 | -90.61621 | 33902 ft | 398 kts | 306° |
| 2026-05-09 03:27 | 38.00995 | -90.66646 | 33895 ft | 399 kts | 306° |
| 2026-05-09 03:28 | 38.04886 | -90.71683 | 33892 ft | 399 kts | 306° |
| 2026-05-09 03:28 | 38.08759 | -90.76718 | 33891 ft | 399 kts | 306° |
| 2026-05-09 03:29 | 38.12650 | -90.81781 | 33867 ft | 401 kts | 306° |
| 2026-05-09 03:29 | 38.16557 | -90.86859 | 33863 ft | 402 kts | 306° |
| 2026-05-09 03:30 | 38.20475 | -90.91959 | 33874 ft | 404 kts | 306° |
| 2026-05-09 03:30 | 38.24403 | -90.97089 | 33904 ft | 406 kts | 306° |
| 2026-05-09 03:31 | 38.28327 | -91.02217 | 33914 ft | 407 kts | 306° |
| 2026-05-09 03:31 | 38.32279 | -91.07403 | 33913 ft | 408 kts | 306° |
| 2026-05-09 03:32 | 38.36233 | -91.12596 | 33910 ft | 408 kts | 306° |
| 2026-05-09 03:32 | 38.40190 | -91.17794 | 33905 ft | 408 kts | 306° |
| 2026-05-09 03:33 | 38.44149 | -91.22994 | 33894 ft | 408 kts | 306° |
| 2026-05-09 03:33 | 38.48098 | -91.28202 | 33871 ft | 408 kts | 306° |
| 2026-05-09 03:34 | 38.52047 | -91.33414 | 33868 ft | 408 kts | 306° |
| 2026-05-09 03:34 | 38.55991 | -91.38631 | 33866 ft | 408 kts | 306° |
| 2026-05-09 03:35 | 38.59934 | -91.43856 | 33864 ft | 408 kts | 306° |
| 2026-05-09 03:35 | 38.63868 | -91.49082 | 33860 ft | 408 kts | 306° |
| 2026-05-09 03:36 | 38.67806 | -91.54319 | 33878 ft | 407 kts | 307° |
| 2026-05-09 03:36 | 38.71707 | -91.59514 | 33872 ft | 407 kts | 307° |
| 2026-05-09 03:37 | 38.75630 | -91.64751 | 33871 ft | 408 kts | 307° |
| 2026-05-09 03:37 | 38.79555 | -91.70005 | 33872 ft | 408 kts | 307° |
| 2026-05-09 03:38 | 38.83477 | -91.75255 | 33865 ft | 408 kts | 307° |
| 2026-05-09 03:38 | 38.87400 | -91.80511 | 33868 ft | 408 kts | 307° |
| 2026-05-09 03:39 | 38.91319 | -91.85776 | 33883 ft | 408 kts | 307° |
| 2026-05-09 03:39 | 38.95241 | -91.91052 | 33862 ft | 408 kts | 307° |
| 2026-05-09 03:40 | 38.98493 | -91.95442 | 33875 ft | 407 kts | 309° |
| 2026-05-09 03:40 | 39.02394 | -92.00696 | 33895 ft | 406 kts | 309° |
| 2026-05-09 03:41 | 39.06275 | -92.05941 | 33890 ft | 405 kts | 309° |
| 2026-05-09 03:41 | 39.10155 | -92.11208 | 33889 ft | 404 kts | 309° |
| 2026-05-09 03:42 | 39.14110 | -92.16362 | 33913 ft | 406 kts | 313° |
| 2026-05-09 03:42 | 39.18262 | -92.21288 | 33903 ft | 406 kts | 314° |
| 2026-05-09 03:43 | 39.22442 | -92.26194 | 33895 ft | 405 kts | 313° |
| 2026-05-09 03:43 | 39.26568 | -92.31148 | 33882 ft | 404 kts | 315° |
| 2026-05-09 03:44 | 39.30649 | -92.36113 | 33896 ft | 402 kts | 315° |
| 2026-05-09 03:44 | 39.34648 | -92.40973 | 33900 ft | 398 kts | 315° |
| 2026-05-09 03:45 | 39.38726 | -92.45925 | 33909 ft | 395 kts | 315° |
| 2026-05-09 03:45 | 39.42707 | -92.50761 | 33905 ft | 395 kts | 315° |
| 2026-05-09 03:46 | 39.46708 | -92.55636 | 33900 ft | 395 kts | 315° |
| 2026-05-09 03:46 | 39.50710 | -92.60517 | 33898 ft | 395 kts | 315° |
| 2026-05-09 03:47 | 39.54713 | -92.65415 | 33891 ft | 395 kts | 315° |
| 2026-05-09 03:47 | 39.58694 | -92.70303 | 33908 ft | 393 kts | 317° |
| 2026-05-09 03:48 | 39.62637 | -92.75133 | 33902 ft | 389 kts | 317° |
| 2026-05-09 03:48 | 39.66556 | -92.79929 | 33890 ft | 386 kts | 317° |
| 2026-05-09 03:49 | 39.70439 | -92.84698 | 33885 ft | 384 kts | 317° |
| 2026-05-09 03:49 | 39.74305 | -92.89469 | 33877 ft | 383 kts | 317° |
| 2026-05-09 03:50 | 39.78165 | -92.94237 | 33903 ft | 382 kts | 317° |
| 2026-05-09 03:50 | 39.82016 | -92.98985 | 33885 ft | 380 kts | 317° |
| 2026-05-09 03:51 | 39.85840 | -93.03721 | 33873 ft | 379 kts | 317° |
| 2026-05-09 03:51 | 39.89649 | -93.08460 | 33861 ft | 377 kts | 319° |
| 2026-05-09 03:52 | 39.93404 | -93.13142 | 33870 ft | 375 kts | 319° |
| 2026-05-09 03:52 | 39.97169 | -93.17833 | 33872 ft | 374 kts | 319° |
| 2026-05-09 03:53 | 40.00924 | -93.22507 | 33876 ft | 372 kts | 319° |
| 2026-05-09 03:53 | 40.04653 | -93.27163 | 33872 ft | 371 kts | 319° |
| 2026-05-09 03:54 | 40.08376 | -93.31811 | 33864 ft | 370 kts | 319° |
| 2026-05-09 03:54 | 40.12088 | -93.36450 | 33862 ft | 369 kts | 319° |
| 2026-05-09 03:55 | 40.15788 | -93.41097 | 33860 ft | 369 kts | 319° |
| 2026-05-09 03:55 | 40.19483 | -93.45752 | 33859 ft | 369 kts | 319° |
| 2026-05-09 03:56 | 40.23175 | -93.50405 | 33876 ft | 368 kts | 319° |
| 2026-05-09 03:56 | 40.26837 | -93.55020 | 33867 ft | 368 kts | 319° |
| 2026-05-09 03:57 | 40.30522 | -93.59668 | 33859 ft | 367 kts | 319° |
| 2026-05-09 03:57 | 40.34193 | -93.64305 | 33849 ft | 367 kts | 319° |
| 2026-05-09 03:58 | 40.37855 | -93.68945 | 33843 ft | 366 kts | 319° |
| 2026-05-09 03:58 | 40.41511 | -93.73596 | 33846 ft | 366 kts | 319° |
| 2026-05-09 03:59 | 40.45174 | -93.78248 | 33841 ft | 366 kts | 319° |
| 2026-05-09 03:59 | 40.48823 | -93.82883 | 33808 ft | 366 kts | 319° |
| 2026-05-09 04:00 | 40.52467 | -93.87532 | 33820 ft | 365 kts | 319° |
| 2026-05-09 04:00 | 40.56103 | -93.92178 | 33777 ft | 365 kts | 319° |
| 2026-05-09 04:01 | 40.57870 | -93.94568 | 33505 ft | 366 kts | 313° |
| 2026-05-09 04:01 | 40.59300 | -93.97369 | 33235 ft | 373 kts | 303° |
| 2026-05-09 04:01 | 40.60294 | -94.00541 | 32738 ft | 379 kts | 292° |
| 2026-05-09 04:01 | 40.60887 | -94.03943 | 32176 ft | 380 kts | 290° |
| 2026-05-09 04:02 | 40.61440 | -94.07333 | 31617 ft | 379 kts | 290° |
| 2026-05-09 04:02 | 40.61995 | -94.10709 | 31054 ft | 377 kts | 290° |
| 2026-05-09 04:02 | 40.62554 | -94.14073 | 30497 ft | 375 kts | 290° |
| 2026-05-09 04:02 | 40.63114 | -94.17431 | 29961 ft | 374 kts | 290° |
| 2026-05-09 04:03 | 40.63671 | -94.20768 | 29316 ft | 372 kts | 289° |
| 2026-05-09 04:03 | 40.64217 | -94.24068 | 28824 ft | 367 kts | 288° |
| 2026-05-09 04:03 | 40.64756 | -94.27339 | 28291 ft | 364 kts | 288° |
| 2026-05-09 04:03 | 40.65282 | -94.30544 | 27778 ft | 361 kts | 288° |
| 2026-05-09 04:04 | 40.65806 | -94.33755 | 27270 ft | 358 kts | 288° |
| 2026-05-09 04:04 | 40.66329 | -94.36954 | 26764 ft | 355 kts | 288° |
| 2026-05-09 04:04 | 40.66845 | -94.40119 | 26277 ft | 353 kts | 287° |
| 2026-05-09 04:04 | 40.67357 | -94.43272 | 25814 ft | 350 kts | 287° |
| 2026-05-09 04:05 | 40.67864 | -94.46391 | 25330 ft | 347 kts | 287° |
| 2026-05-09 04:05 | 40.68368 | -94.49483 | 24883 ft | 344 kts | 287° |
| 2026-05-09 04:05 | 40.68871 | -94.52551 | 24437 ft | 342 kts | 286° |
| 2026-05-09 04:05 | 40.69371 | -94.55608 | 23989 ft | 340 kts | 286° |
| 2026-05-09 04:06 | 40.69865 | -94.58641 | 23526 ft | 338 kts | 286° |
| 2026-05-09 04:06 | 40.70354 | -94.61668 | 23036 ft | 336 kts | 286° |
| 2026-05-09 04:06 | 40.70840 | -94.64675 | 22574 ft | 333 kts | 285° |
| 2026-05-09 04:06 | 40.71316 | -94.67646 | 22129 ft | 330 kts | 285° |
| 2026-05-09 04:07 | 40.71790 | -94.70597 | 21704 ft | 327 kts | 285° |
| 2026-05-09 04:07 | 40.72259 | -94.73518 | 21261 ft | 325 kts | 285° |
| 2026-05-09 04:07 | 40.72719 | -94.76383 | 20823 ft | 323 kts | 285° |
| 2026-05-09 04:07 | 40.73183 | -94.79273 | 20378 ft | 321 kts | 285° |
| 2026-05-09 04:08 | 40.73641 | -94.82144 | 19939 ft | 319 kts | 285° |
| 2026-05-09 04:08 | 40.74095 | -94.85002 | 19505 ft | 318 kts | 285° |
| 2026-05-09 04:08 | 40.74547 | -94.87850 | 19053 ft | 317 kts | 285° |
| 2026-05-09 04:08 | 40.74998 | -94.90693 | 18624 ft | 315 kts | 285° |
| 2026-05-09 04:09 | 40.75445 | -94.93514 | 18195 ft | 314 kts | 284° |
| 2026-05-09 04:09 | 40.75891 | -94.96334 | 17707 ft | 313 kts | 285° |
| 2026-05-09 04:09 | 40.76331 | -94.99130 | 17279 ft | 310 kts | 285° |
| 2026-05-09 04:09 | 40.76765 | -95.01890 | 16874 ft | 307 kts | 285° |
| 2026-05-09 04:10 | 40.77195 | -95.04630 | 16461 ft | 304 kts | 285° |
| 2026-05-09 04:10 | 40.77716 | -95.07291 | 16214 ft | 294 kts | 293° |
| 2026-05-09 04:10 | 40.78625 | -95.09701 | 16005 ft | 298 kts | 304° |
| 2026-05-09 04:10 | 40.79893 | -95.11898 | 16024 ft | 304 kts | 309° |
| 2026-05-09 04:11 | 40.81214 | -95.14082 | 16015 ft | 305 kts | 309° |
| 2026-05-09 04:11 | 40.82522 | -95.16262 | 16015 ft | 305 kts | 308° |
| 2026-05-09 04:11 | 40.83839 | -95.18463 | 16015 ft | 305 kts | 308° |
| 2026-05-09 04:11 | 40.85151 | -95.20656 | 15999 ft | 304 kts | 308° |
| 2026-05-09 04:12 | 40.86453 | -95.22831 | 15592 ft | 302 kts | 309° |
| 2026-05-09 04:12 | 40.87761 | -95.25011 | 15162 ft | 300 kts | 309° |
| 2026-05-09 04:12 | 40.89047 | -95.27150 | 14754 ft | 299 kts | 309° |
| 2026-05-09 04:12 | 40.90338 | -95.29302 | 14350 ft | 297 kts | 309° |
| 2026-05-09 04:13 | 40.91606 | -95.31418 | 13947 ft | 296 kts | 309° |
| 2026-05-09 04:13 | 40.92875 | -95.33536 | 13532 ft | 295 kts | 309° |
| 2026-05-09 04:13 | 40.94166 | -95.35694 | 13078 ft | 293 kts | 309° |
| 2026-05-09 04:13 | 40.95407 | -95.37775 | 12652 ft | 292 kts | 309° |
| 2026-05-09 04:14 | 40.96666 | -95.39889 | 12221 ft | 291 kts | 308° |
| 2026-05-09 04:14 | 40.97901 | -95.41964 | 12022 ft | 282 kts | 308° |
| 2026-05-09 04:14 | 40.98995 | -95.44142 | 11444 ft | 287 kts | 302° |
| 2026-05-09 04:14 | 41.00020 | -95.46424 | 10977 ft | 288 kts | 301° |
| 2026-05-09 04:15 | 41.01116 | -95.48613 | 10725 ft | 281 kts | 309° |
| 2026-05-09 04:15 | 41.02332 | -95.50566 | 10585 ft | 270 kts | 309° |
| 2026-05-09 04:15 | 41.03515 | -95.52465 | 10309 ft | 266 kts | 309° |
| 2026-05-09 04:15 | 41.04688 | -95.54342 | 10042 ft | 263 kts | 309° |
| 2026-05-09 04:16 | 41.05859 | -95.56217 | 10002 ft | 264 kts | 309° |
| 2026-05-09 04:16 | 41.07035 | -95.58106 | 9996 ft | 265 kts | 309° |
| 2026-05-09 04:16 | 41.08209 | -95.59994 | 10001 ft | 265 kts | 309° |
| 2026-05-09 04:16 | 41.09366 | -95.61860 | 9989 ft | 266 kts | 309° |
| 2026-05-09 04:17 | 41.10541 | -95.63752 | 10008 ft | 266 kts | 309° |
| 2026-05-09 04:17 | 41.11717 | -95.65643 | 9814 ft | 266 kts | 309° |
| 2026-05-09 04:17 | 41.12757 | -95.67663 | 9437 ft | 264 kts | 300° |
| 2026-05-09 04:17 | 41.13638 | -95.69790 | 9058 ft | 262 kts | 299° |
| 2026-05-09 04:18 | 41.14492 | -95.71903 | 8404 ft | 262 kts | 298° |
| 2026-05-09 04:18 | 41.15382 | -95.74088 | 7223 ft | 276 kts | 298° |
| 2026-05-09 04:18 | 41.16422 | -95.76282 | 6004 ft | 286 kts | 313° |
| 2026-05-09 04:18 | 41.18032 | -95.77883 | 4758 ft | 297 kts | 335° |
| 2026-05-09 04:19 | 41.20006 | -95.78331 | 4405 ft | 278 kts | 4° |
| 2026-05-09 04:19 | 41.21743 | -95.77555 | 4267 ft | 256 kts | 33° |
| 2026-05-09 04:19 | 41.22902 | -95.75872 | 3923 ft | 246 kts | 63° |
| 2026-05-09 04:19 | 41.23261 | -95.73688 | 3390 ft | 245 kts | 95° |
| 2026-05-09 04:20 | 41.22696 | -95.71600 | 3102 ft | 240 kts | 129° |
| 2026-05-09 04:20 | 41.21430 | -95.70273 | 3024 ft | 230 kts | 156° |
| 2026-05-09 04:20 | 41.20039 | -95.69263 | 3004 ft | 228 kts | 145° |
| 2026-05-09 04:20 | 41.18764 | -95.68003 | 3013 ft | 228 kts | 142° |
| 2026-05-09 04:21 | 41.17390 | -95.66986 | 2996 ft | 227 kts | 168° |
| 2026-05-09 04:21 | 41.15847 | -95.67071 | 3007 ft | 224 kts | 202° |
| 2026-05-09 04:21 | 41.14145 | -95.70093 | 3014 ft | 211 kts | 272° |
| 2026-05-09 04:22 | 41.14555 | -95.71910 | 3011 ft | 209 kts | 304° |
| 2026-05-09 04:22 | 41.15452 | -95.73437 | 3017 ft | 210 kts | 311° |
| 2026-05-09 04:22 | 41.16418 | -95.74905 | 3013 ft | 211 kts | 311° |
| 2026-05-09 04:22 | 41.17376 | -95.76340 | 3015 ft | 211 kts | 312° |
| 2026-05-09 04:23 | 41.18351 | -95.77798 | 3014 ft | 211 kts | 312° |
| 2026-05-09 04:23 | 41.19359 | -95.79152 | 3019 ft | 197 kts | 321° |
| 2026-05-09 04:23 | 41.20388 | -95.80179 | 3013 ft | 176 kts | 322° |
| 2026-05-09 04:23 | 41.21351 | -95.81095 | 3010 ft | 166 kts | 323° |
| 2026-05-09 04:24 | 41.22280 | -95.81975 | 3017 ft | 163 kts | 323° |
| 2026-05-09 04:24 | 41.23186 | -95.82832 | 2857 ft | 156 kts | 323° |
| 2026-05-09 04:24 | 41.24074 | -95.83673 | 2483 ft | 153 kts | 323° |
| 2026-05-09 04:24 | 41.24924 | -95.84473 | 2146 ft | 148 kts | 323° |
| 2026-05-09 04:25 | 41.25764 | -95.85287 | 1918 ft | 148 kts | 323° |
| 2026-05-09 04:25 | 41.26600 | -95.86077 | 1698 ft | 149 kts | 324° |
| 2026-05-09 04:25 | 41.27464 | -95.86889 | 1473 ft | 151 kts | 325° |
| 2026-05-09 04:25 | 41.28312 | -95.87696 | 1249 ft | 152 kts | 325° |
| 2026-05-09 04:26 | 41.29163 | -95.88502 | 1051 ft | 150 kts | 325° |
| 2026-05-09 04:26 | 41.29984 | -95.89273 | 989 ft | 130 kts | 326° |
| 2026-05-09 04:26 | 41.30549 | -95.89817 | 995 ft | 76 kts | 324° |
| 2026-05-09 04:26 | 41.30796 | -95.90054 | 989 ft | 25 kts | 322° |
| 2026-05-09 04:27 | 41.30908 | -95.90159 | 989 ft | 16 kts | 324° |
| 2026-05-09 04:27 | 41.30989 | -95.90237 | 986 ft | 13 kts | 324° |
| 2026-05-09 04:27 | 41.31033 | -95.90319 | 993 ft | 10 kts | 273° |
| 2026-05-09 04:27 | 41.30995 | -95.90389 | 988 ft | 10 kts | 198° |
| 2026-05-09 04:28 | 41.30932 | -95.90361 | 986 ft | 10 kts | 148° |
| 2026-05-09 04:28 | 41.30871 | -95.90300 | 993 ft | 11 kts | 144° |
| 2026-05-09 04:28 | 41.30824 | -95.90257 | 984 ft | 14 kts | 144° |
| 2026-05-09 04:28 | 41.30764 | -95.90199 | 991 ft | 19 kts | 143° |